Time;durP1;ratioP1;P1;durP2;ratioP2;P2;SDS_P1;SDS_P2;PMS_P1;PMS_P2;Temp;Humidity;BMP_temperature;BMP_pressure;BME280_temperature;BME280_humidity;BME280_pressure;Samples;Min_cycle;Max_cycle;Signal;HPM_P1;HPM_P2
2019/04/24 00:02:41;;;;;;;12.4;10;;;;;;;10.64;76.68066;944.9118;;;;
2019/04/24 00:07:31;;;;;;;12.1;9.2;;;;;;;10.58;76.80762;944.89;;;;
2019/04/24 00:12:37;;;;;;;10.5;9.4;;;;;;;10.43;77.46094;944.9216;;;;
2019/04/24 00:17:31;;;;;;;10.3;9.3;;;;;;;10.4;77.50293;944.9383;;;;
2019/04/24 00:19:51;;;;;;;13;10.2;;;;;;;10.31;77.74023;944.9244;;;;
2019/04/24 00:22:16;;;;;;;11.2;9.5;;;;;;;10.32;77.70703;944.9355;;;;
2019/04/24 00:24:41;;;;;;;14.1;10.2;;;;;;;10.22;78.18555;945.0204;;;;
2019/04/24 00:27:06;;;;;;;10.7;9.6;;;;;;;10.17;78.33691;944.993;;;;
2019/04/24 00:29:31;;;;;;;11.8;10.6;;;;;;;10.02;78.97949;944.9525;;;;
2019/04/24 00:31:58;;;;;;;10.5;9.4;;;;;;;9.97;79.21191;944.9594;;;;
2019/04/24 00:34:24;;;;;;;14.6;10.1;;;;;;;9.88;79.5625;944.9327;;;;
2019/04/24 00:36:49;;;;;;;11;10;;;;;;;9.85;79.56934;944.9481;;;;
2019/04/24 00:39:14;;;;;;;11.7;10.5;;;;;;;9.8;79.7334;944.9246;;;;
2019/04/24 00:41:39;;;;;;;11;9.8;;;;;;;9.75;80.1709;944.9745;;;;
2019/04/24 00:44:04;;;;;;;12.3;9.9;;;;;;;9.71;80.31641;945.0894;;;;
2019/04/24 00:46:30;;;;;;;11.7;10.3;;;;;;;9.72;80.14453;945.0451;;;;
2019/04/24 00:48:55;;;;;;;12.2;9.7;;;;;;;9.74;80.06738;945.06;;;;
2019/04/24 00:51:20;;;;;;;12.1;9.4;;;;;;;9.66;80.375;945.0234;;;;
2019/04/24 00:53:45;;;;;;;14.3;10.3;;;;;;;9.61;80.5957;945.038;;;;
2019/04/24 00:56:10;;;;;;;12.8;10.6;;;;;;;9.64;81.67285;945.0428;;;;
2019/04/24 00:58:38;;;;;;;12.7;10.4;;;;;;;9.64;81.99414;945.1028;;;;
2019/04/24 01:03:58;;;;;;;13.6;10.7;;;;;;;9.66;80.80078;945.1561;;;;
2019/04/24 01:06:21;;;;;;;11.6;10.4;;;;;;;9.63;81.00195;945.1088;;;;
2019/04/24 01:08:38;;;;;;;12;10.7;;;;;;;9.56;81.02441;945.1253;;;;
2019/04/24 01:11:03;;;;;;;11.4;10.2;;;;;;;9.56;80.86328;945.0998;;;;
2019/04/24 01:13:28;;;;;;;12.1;10.3;;;;;;;9.51;81.08398;945.1484;;;;
2019/04/24 01:15:56;;;;;;;13.7;10.4;;;;;;;9.37;81.5166;945.192;;;;
2019/04/24 01:18:21;;;;;;;13;11.2;;;;;;;9.36;82.25195;945.2186;;;;
2019/04/24 01:20:46;;;;;;;14.7;11.6;;;;;;;9.35;83.07813;945.1303;;;;
2019/04/24 01:23:11;;;;;;;12.5;10.6;;;;;;;9.35;82.8252;945.1303;;;;
2019/04/24 01:25:36;;;;;;;12;10.7;;;;;;;9.31;82.36035;945.1261;;;;
2019/04/24 01:28:04;;;;;;;12.9;10.6;;;;;;;9.3;82.48145;945.1752;;;;
2019/04/24 01:32:56;;;;;;;12.1;10.8;;;;;;;9.28;82.44336;945.2879;;;;
2019/04/24 01:35:28;;;;;;;13.1;11.1;;;;;;;9.21;82.69629;945.2541;;;;
2019/04/24 01:37:48;;;;;;;12.6;10.9;;;;;;;9.32;82.07227;945.3205;;;;
2019/04/24 01:40:14;;;;;;;13.9;11.1;;;;;;;9.38;81.6123;945.2795;;;;
2019/04/24 01:42:35;;;;;;;11.8;10.2;;;;;;;9.25;82.13965;945.3171;;;;
2019/04/24 01:45:05;;;;;;;12.5;11.2;;;;;;;9.23;82.05566;945.3663;;;;
2019/04/24 01:47:33;;;;;;;12.3;11;;;;;;;9.13;82.49707;945.3618;;;;
2019/04/24 01:49:59;;;;;;;12.8;11.1;;;;;;;9.04;82.98535;945.3466;;;;
2019/04/24 01:52:23;;;;;;;12.8;11.1;;;;;;;9.03;83.1084;945.3444;;;;
2019/04/24 01:54:51;;;;;;;12;10.7;;;;;;;8.99;83.04395;945.2766;;;;
2019/04/24 01:57:16;;;;;;;15.5;11.2;;;;;;;9.03;82.83398;945.2887;;;;
2019/04/24 01:59:43;;;;;;;11.1;10;;;;;;;9.1;82.34082;945.3527;;;;
2019/04/24 02:02:08;;;;;;;11.2;10;;;;;;;9.18;81.79199;945.4023;;;;
2019/04/24 02:04:34;;;;;;;14.9;11.2;;;;;;;9.12;81.97754;945.4139;;;;
2019/04/24 02:07:04;;;;;;;13.7;10.7;;;;;;;9.05;82.23828;945.4398;;;;
2019/04/24 02:09:29;;;;;;;12.2;10.4;;;;;;;9.02;82.26758;945.3453;;;;
2019/04/24 02:11:50;;;;;;;13.5;10.6;;;;;;;8.89;82.91016;945.4161;;;;
2019/04/24 02:14:15;;;;;;;12;10.3;;;;;;;8.86;82.93945;945.4495;;;;
2019/04/24 02:16:40;;;;;;;12;10.6;;;;;;;8.82;83.08008;945.4668;;;;
2019/04/24 02:19:05;;;;;;;12.1;10.9;;;;;;;8.8;82.92773;945.5499;;;;
2019/04/24 02:21:30;;;;;;;12.6;10.9;;;;;;;8.87;82.68652;945.5172;;;;
2019/04/24 02:23:57;;;;;;;11.7;10.2;;;;;;;8.81;82.86035;945.5237;;;;
2019/04/24 02:26:22;;;;;;;13.6;10.5;;;;;;;8.83;82.71484;945.5295;;;;
2019/04/24 02:28:50;;;;;;;11.6;10.3;;;;;;;8.83;82.67969;945.5129;;;;
2019/04/24 02:31:12;;;;;;;12.1;10.5;;;;;;;8.76;82.97656;945.424;;;;
2019/04/24 02:33:43;;;;;;;13.4;11.2;;;;;;;8.75;82.92871;945.4504;;;;
2019/04/24 02:36:07;;;;;;;11.6;10.2;;;;;;;8.84;82.62598;945.4727;;;;
2019/04/24 02:41:06;;;;;;;11.6;10.2;;;;;;;8.87;82.10059;945.5298;;;;
2019/04/24 02:43:25;;;;;;;12;10.8;;;;;;;8.74;82.54785;945.5153;;;;
2019/04/24 02:45:52;;;;;;;11.6;10.5;;;;;;;8.67;82.89063;945.5744;;;;
2019/04/24 02:48:17;;;;;;;12.1;10.9;;;;;;;8.69;83.1582;945.6022;;;;
2019/04/24 02:50:43;;;;;;;12.3;10.9;;;;;;;8.75;82.80078;945.5995;;;;
2019/04/24 02:53:08;;;;;;;13.3;11.9;;;;;;;8.66;83.10645;945.5753;;;;
2019/04/24 02:55:35;;;;;;;13.4;11.4;;;;;;;8.59;83.31152;945.61;;;;
2019/04/24 02:58:00;;;;;;;12.6;11.3;;;;;;;8.55;83.61426;945.6531;;;;
2019/04/24 03:00:27;;;;;;;12.4;11.2;;;;;;;8.59;83.08203;945.6483;;;;
2019/04/24 03:02:52;;;;;;;13.2;11.5;;;;;;;8.55;83.3252;945.6619;;;;
2019/04/24 03:05:17;;;;;;;12.2;10.9;;;;;;;8.56;83.29492;945.6305;;;;
2019/04/24 03:07:42;;;;;;;11.5;10.3;;;;;;;8.51;83.42188;945.6409;;;;
2019/04/24 03:10:09;;;;;;;12.1;10.9;;;;;;;8.45;83.72168;945.652;;;;
2019/04/24 03:17:26;;;;;;;12.6;11.3;;;;;;;8.27;84.47754;945.7579;;;;
2019/04/24 03:19:51;;;;;;;13.1;10.8;;;;;;;8.34;83.67578;945.7332;;;;
2019/04/24 03:22:20;;;;;;;11.8;10.5;;;;;;;8.28;84.00879;945.6808;;;;
2019/04/24 03:24:46;;;;;;;13.5;11.4;;;;;;;8.21;84.45508;945.7182;;;;
2019/04/24 03:29:36;;;;;;;12.3;11;;;;;;;8.23;84.26367;945.7036;;;;
2019/04/24 03:32:01;;;;;;;12.2;10.9;;;;;;;8.2;84.18945;945.7573;;;;
2019/04/24 03:34:28;;;;;;;12.6;10.6;;;;;;;8.17;84.32031;945.7952;;;;
2019/04/24 03:37:04;;;;;;;11.8;10.6;;;;;;;8.15;84.37402;945.8873;;;;
2019/04/24 03:39:20;;;;;;;15.3;11.1;;;;;;;8.07;84.77148;945.9177;;;;
2019/04/24 03:41:46;;;;;;;14.5;11.5;;;;;;;8;85.06738;946.0197;;;;
2019/04/24 03:44:14;;;;;;;12.5;11.2;;;;;;;7.93;85.47754;946.0916;;;;
2019/04/24 03:46:44;;;;;;;15;11.6;;;;;;;7.85;85.69043;946.1005;;;;
2019/04/24 03:49:06;;;;;;;13;11.7;;;;;;;7.78;86.11328;946.1083;;;;
2019/04/24 03:51:34;;;;;;;12.8;11.3;;;;;;;7.74;86.24414;946.1254;;;;
2019/04/24 03:54:11;;;;;;;14.5;11.7;;;;;;;7.72;86.39941;946.2047;;;;
2019/04/24 03:56:30;;;;;;;13.1;11.7;;;;;;;7.73;86.30762;946.2125;;;;
2019/04/24 03:58:54;;;;;;;15.9;12;;;;;;;7.69;86.43945;946.1699;;;;
2019/04/24 04:02:32;;;;;;;12.5;11.2;;;;;;;7.78;85.88477;946.0956;;;;
2019/04/24 04:04:53;;;;;;;15.1;12;;;;;;;7.71;86.33984;946.1292;;;;
2019/04/24 04:07:39;;;;;;;14.2;11.7;;;;;;;7.68;86.28711;946.1501;;;;
2019/04/24 04:10:04;;;;;;;14;11.9;;;;;;;7.7;86.12012;946.2026;;;;
2019/04/24 04:12:32;;;;;;;14.5;12.2;;;;;;;7.68;86.27734;946.1962;;;;
2019/04/24 04:14:54;;;;;;;16.4;13.2;;;;;;;7.63;86.3125;946.3376;;;;
2019/04/24 04:17:25;;;;;;;15.4;12.3;;;;;;;7.59;86.56738;946.2578;;;;
2019/04/24 04:19:45;;;;;;;14;12.6;;;;;;;7.61;86.75391;946.2305;;;;
2019/04/24 04:22:10;;;;;;;15.8;13.7;;;;;;;7.64;86.47461;946.4434;;;;
2019/04/24 04:24:52;;;;;;;14.7;12.3;;;;;;;7.71;86.22754;946.4005;;;;
2019/04/24 04:27:16;;;;;;;15.7;13.4;;;;;;;7.63;86.91992;946.4189;;;;
2019/04/24 04:30:00;;;;;;;15.9;13;;;;;;;7.64;86.41699;946.367;;;;
2019/04/24 04:32:53;;;;;;;14.2;12.8;;;;;;;7.72;86.25;946.4592;;;;
2019/04/24 04:35:03;;;;;;;15.2;12.8;;;;;;;7.94;85.03125;946.4551;;;;
2019/04/24 04:37:25;;;;;;;16.1;12.4;;;;;;;7.83;85.50488;946.5226;;;;
2019/04/24 04:39:56;;;;;;;13;11.6;;;;;;;7.93;85.15625;946.5119;;;;
2019/04/24 04:42:16;;;;;;;16.1;12.1;;;;;;;7.9;85.26563;946.5017;;;;
2019/04/24 04:44:41;;;;;;;13.3;11.9;;;;;;;7.88;85.4668;946.509;;;;
2019/04/24 04:47:15;;;;;;;11.7;10.5;;;;;;;7.91;85.42969;946.5302;;;;
2019/04/24 04:49:36;;;;;;;13.7;11.6;;;;;;;7.96;85.34668;946.6091;;;;
2019/04/24 04:54:22;;;;;;;14.5;12;;;;;;;8.14;85.71484;946.6191;;;;
2019/04/24 04:56:47;;;;;;;17.7;12.7;;;;;;;8.21;85.66016;946.7846;;;;
2019/04/24 04:59:12;;;;;;;13.7;11.2;;;;;;;8.35;83.55176;946.6998;;;;
2019/04/24 05:01:47;;;;;;;13.7;11.1;;;;;;;8.39;83.30762;946.7555;;;;
2019/04/24 05:04:09;;;;;;;15.2;11.6;;;;;;;8.47;83.08203;946.8309;;;;
2019/04/24 05:06:30;;;;;;;12.9;10.6;;;;;;;8.63;81.36719;946.6886;;;;
2019/04/24 05:09:01;;;;;;;14.7;10.8;;;;;;;8.73;80.75391;946.8768;;;;
2019/04/24 05:11:26;;;;;;;15.5;10.7;;;;;;;8.78;80.50879;946.8625;;;;
2019/04/24 05:13:50;;;;;;;13.5;10.9;;;;;;;8.93;80.22754;946.8059;;;;
2019/04/24 05:16:16;;;;;;;12.7;10.3;;;;;;;9.02;79.31445;946.8459;;;;
2019/04/24 05:18:42;;;;;;;11.9;10.7;;;;;;;9.11;78.83398;946.8486;;;;
2019/04/24 05:21:07;;;;;;;11.8;10.3;;;;;;;9.15;78.31348;946.8136;;;;
2019/04/24 05:23:36;;;;;;;11.6;10.3;;;;;;;9.19;77.76953;946.8297;;;;
2019/04/24 05:26:01;;;;;;;12.6;10.9;;;;;;;9.22;77.82031;946.9282;;;;
2019/04/24 05:28:25;;;;;;;12.4;10.4;;;;;;;9.31;77.37793;946.9642;;;;
2019/04/24 05:30:56;;;;;;;12.7;10.3;;;;;;;9.39;77.11426;946.9384;;;;
2019/04/24 05:33:15;;;;;;;18.3;12.3;;;;;;;9.4;76.9668;946.963;;;;
2019/04/24 05:35:50;;;;;;;25.5;16.9;;;;;;;9.49;76.82129;947.0156;;;;
2019/04/24 05:38:23;;;;;;;31.4;20;;;;;;;9.66;76.82813;947.1219;;;;
2019/04/24 05:40:42;;;;;;;34.4;21;;;;;;;9.74;76.37109;947.0701;;;;
2019/04/24 05:43:01;;;;;;;29.5;19.5;;;;;;;9.73;75.82813;947.1133;;;;
2019/04/24 05:45:27;;;;;;;24.1;16.9;;;;;;;9.85;75.42188;947.0483;;;;
2019/04/24 05:47:54;;;;;;;19.8;13.2;;;;;;;9.91;75.65039;947.1135;;;;
2019/04/24 05:52:48;;;;;;;13.6;10.1;;;;;;;10.04;74.16406;947.0974;;;;
2019/04/24 05:55:27;;;;;;;11.8;10.5;;;;;;;10.02;74.75;947.0522;;;;
2019/04/24 05:57:52;;;;;;;14.4;10.9;;;;;;;10.17;74.99219;947.1453;;;;
2019/04/24 06:05:06;;;;;;;16.8;10.6;;;;;;;10.39;72.49512;947.1859;;;;
2019/04/24 06:07:38;;;;;;;15.5;10.3;;;;;;;10.36;72.78906;947.2283;;;;
2019/04/24 06:10:02;;;;;;;11.7;9.9;;;;;;;10.66;72.04395;947.2625;;;;
2019/04/24 06:12:26;;;;;;;15.5;9.9;;;;;;;10.83;71.78223;947.2847;;;;
2019/04/24 06:14:53;;;;;;;17.1;10.8;;;;;;;10.9;70.98633;947.3735;;;;
2019/04/24 06:17:20;;;;;;;12.1;9.9;;;;;;;11;71.46484;947.3608;;;;
2019/04/24 06:19:41;;;;;;;16.6;10.2;;;;;;;10.98;71.25391;947.3757;;;;
2019/04/24 06:22:02;;;;;;;13.4;10.4;;;;;;;11.11;69.91113;947.4111;;;;
2019/04/24 06:24:29;;;;;;;10.7;9.6;;;;;;;11.23;68.96094;947.4301;;;;
2019/04/24 06:26:55;;;;;;;12.5;9.5;;;;;;;11.26;68.54883;947.4174;;;;
2019/04/24 06:29:24;;;;;;;13.9;10;;;;;;;11.33;68.08496;947.3917;;;;
2019/04/24 06:31:51;;;;;;;12.9;9.4;;;;;;;11.28;68.12598;947.3592;;;;
2019/04/24 06:34:42;;;;;;;9.8;8.8;;;;;;;11.54;66.84668;947.4244;;;;
2019/04/24 06:39:21;;;;;;;10.7;8.7;;;;;;;11.84;65.81738;947.4117;;;;
2019/04/24 06:44:12;;;;;;;11.1;8.2;;;;;;;12.09;65.04395;947.3621;;;;
2019/04/24 06:46:41;;;;;;;10.9;8.2;;;;;;;12.15;64.46191;947.3371;;;;
2019/04/24 06:49:07;;;;;;;9.5;7.6;;;;;;;12.35;63.45117;947.3395;;;;
2019/04/24 06:51:32;;;;;;;10.7;8.1;;;;;;;12.38;63.47656;947.3531;;;;
2019/04/24 06:53:58;;;;;;;11.2;8.2;;;;;;;12.52;63.39355;947.4196;;;;
2019/04/24 06:56:38;;;;;;;10.7;8.6;;;;;;;12.56;62.37988;947.4955;;;;
2019/04/24 06:59:21;;;;;;;10;8.2;;;;;;;12.79;62.97949;947.4481;;;;
2019/04/24 07:01:49;;;;;;;12.3;8.9;;;;;;;12.83;63.20703;947.434;;;;
2019/04/24 07:06:40;;;;;;;9;7.3;;;;;;;13.11;62.55078;947.5128;;;;
2019/04/24 07:09:31;;;;;;;10.2;7.8;;;;;;;13.14;62.54297;947.6022;;;;
2019/04/24 07:11:56;;;;;;;9.5;8.3;;;;;;;13.28;62.37891;947.5406;;;;
2019/04/24 07:16:48;;;;;;;12.6;8.3;;;;;;;13.43;61.27246;947.6917;;;;
2019/04/24 07:19:19;;;;;;;11;8.6;;;;;;;13.6;60.83203;947.6442;;;;
2019/04/24 07:21:55;;;;;;;8.7;7.6;;;;;;;13.76;60.86426;947.6169;;;;
2019/04/24 07:24:19;;;;;;;12.5;8.3;;;;;;;14.02;59.32031;947.6492;;;;
2019/04/24 07:26:43;;;;;;;12.5;7.8;;;;;;;14.17;57.97949;947.7311;;;;
2019/04/24 07:29:11;;;;;;;13.1;7.9;;;;;;;14.24;57.58008;947.7045;;;;
2019/04/24 07:31:46;;;;;;;14.3;7.4;;;;;;;14.45;57.6543;947.6628;;;;
2019/04/24 07:34:22;;;;;;;10.2;7.1;;;;;;;14.52;56.18555;947.7169;;;;
2019/04/24 07:36:49;;;;;;;10.9;6.7;;;;;;;14.68;55.40234;947.7327;;;;
2019/04/24 07:39:19;;;;;;;9.7;6.5;;;;;;;14.85;53.91016;947.7385;;;;
2019/04/24 07:41:44;;;;;;;11.2;6.7;;;;;;;15.07;53.43457;947.7725;;;;
2019/04/24 07:44:25;;;;;;;9.5;5.6;;;;;;;15.15;52.11523;947.718;;;;
2019/04/24 07:46:55;;;;;;;7.2;4.9;;;;;;;15.32;52.59082;947.6887;;;;
2019/04/24 07:49:20;;;;;;;8.3;5.1;;;;;;;15.63;51.78711;947.7864;;;;
2019/04/24 07:51:45;;;;;;;9.2;4.8;;;;;;;15.79;52.13281;947.8495;;;;
2019/04/24 07:54:43;;;;;;;7.9;3.6;;;;;;;16.13;49.43848;947.8431;;;;
2019/04/24 07:57:03;;;;;;;7.5;3.8;;;;;;;16.31;51.17773;947.8457;;;;
2019/04/24 07:59:29;;;;;;;6.5;3.2;;;;;;;16.45;46.11816;947.8511;;;;
2019/04/24 08:02:15;;;;;;;3.2;2.5;;;;;;;16.58;45.76953;947.8318;;;;
2019/04/24 08:04:39;;;;;;;5.6;2.8;;;;;;;16.66;45.73047;947.8851;;;;
2019/04/24 08:07:04;;;;;;;4.4;2.7;;;;;;;16.85;44.11133;947.8954;;;;
2019/04/24 08:11:55;;;;;;;4.4;2.2;;;;;;;17.12;45.33398;947.8501;;;;
2019/04/24 08:14:29;;;;;;;6.3;3.2;;;;;;;17.27;45.47852;947.9008;;;;
2019/04/24 08:17:02;;;;;;;7.3;3.7;;;;;;;17.46;45.66211;947.838;;;;
2019/04/24 08:19:28;;;;;;;6.2;3.2;;;;;;;17.94;45.37109;947.8329;;;;
2019/04/24 08:22:37;;;;;;;7.5;2.9;;;;;;;18.1;42.1582;947.9813;;;;
2019/04/24 08:24:40;;;;;;;4.8;3.2;;;;;;;18.34;43.50977;947.9305;;;;
2019/04/24 08:30:44;;;;;;;7.3;2.7;;;;;;;18.46;41.39453;947.9554;;;;
2019/04/24 08:33:07;;;;;;;7.8;3.2;;;;;;;18.71;41.27734;947.9638;;;;
2019/04/24 08:36:01;;;;;;;5.4;3.6;;;;;;;18.64;42.99805;947.9785;;;;
2019/04/24 08:40:17;;;;;;;4.5;2.8;;;;;;;18.95;42.80566;947.9953;;;;
2019/04/24 08:43:31;;;;;;;4.4;3.1;;;;;;;19.06;42.875;947.999;;;;
2019/04/24 08:48:23;;;;;;;6.8;3.2;;;;;;;19.26;42.37695;947.9714;;;;
2019/04/24 08:51:20;;;;;;;5.7;3.5;;;;;;;19.14;41.49414;947.9869;;;;
2019/04/24 08:52:58;;;;;;;10.4;3.4;;;;;;;19.12;41.44434;947.9735;;;;
2019/04/24 08:55:42;;;;;;;5.8;2.9;;;;;;;19.57;41.66406;947.9872;;;;
2019/04/24 08:58:50;;;;;;;7.7;2.8;;;;;;;19.85;41.44238;947.9041;;;;
2019/04/24 09:01:20;;;;;;;7;3;;;;;;;20.11;40.81836;947.9916;;;;
2019/04/24 09:03:39;;;;;;;5.4;2.9;;;;;;;20.26;41.30371;948.0055;;;;
2019/04/24 09:06:03;;;;;;;5;3;;;;;;;20.48;42.05664;947.9485;;;;
2019/04/24 09:08:32;;;;;;;5.6;3;;;;;;;20.7;39.44434;947.9197;;;;
2019/04/24 09:13:29;;;;;;;6.2;3.7;;;;;;;20.87;40.59375;947.9476;;;;
2019/04/24 09:15:49;;;;;;;10.5;4.1;;;;;;;21.01;38.52637;947.9897;;;;
2019/04/24 09:18:15;;;;;;;6;3.3;;;;;;;21.22;37.82324;948.0411;;;;
2019/04/24 09:20:39;;;;;;;4.1;2.9;;;;;;;21.27;39.28223;948.0151;;;;
2019/04/24 09:23:06;;;;;;;7;4;;;;;;;21.24;39.7998;948.0033;;;;
2019/04/24 09:25:37;;;;;;;4.4;3.2;;;;;;;21.48;39.25293;947.9119;;;;
2019/04/24 09:28:01;;;;;;;5.9;3.4;;;;;;;21.71;38.49316;947.8898;;;;
2019/04/24 09:30:23;;;;;;;6.2;3.2;;;;;;;21.68;39.14063;947.9001;;;;
2019/04/24 09:32:45;;;;;;;8.5;3.3;;;;;;;21.79;38.0498;947.8417;;;;
2019/04/24 09:35:11;;;;;;;5.7;3.3;;;;;;;22.02;36.60059;947.8362;;;;
2019/04/24 09:40:10;;;;;;;5;2.9;;;;;;;22.38;36.96191;947.7108;;;;
2019/04/24 09:42:30;;;;;;;5.3;2.9;;;;;;;22.58;36.33789;947.7755;;;;
2019/04/24 09:44:51;;;;;;;5.4;2.9;;;;;;;22.63;35.40527;947.7661;;;;
2019/04/24 09:47:16;;;;;;;4.7;3.1;;;;;;;22.77;35.7959;947.7291;;;;
2019/04/24 09:49:41;;;;;;;8.6;2.9;;;;;;;22.98;35.66992;947.6633;;;;
2019/04/24 09:52:06;;;;;;;7.1;2.8;;;;;;;23.34;37.89746;947.6337;;;;
2019/04/24 09:57:14;;;;;;;10.1;2.8;;;;;;;23.42;35.18262;947.6111;;;;
2019/04/24 09:59:44;;;;;;;7.7;3;;;;;;;23.44;34.0918;947.6069;;;;
2019/04/24 10:02:30;;;;;;;5.3;2.4;;;;;;;23.51;37.21094;947.5725;;;;
2019/04/24 10:04:46;;;;;;;4.3;2.4;;;;;;;23.43;34.2207;947.5405;;;;
2019/04/24 10:07:05;;;;;;;6.8;2.2;;;;;;;23.81;33.97754;947.5676;;;;
2019/04/24 10:09:37;;;;;;;7.2;1.9;;;;;;;23.77;33.99805;947.5275;;;;
2019/04/24 10:11:58;;;;;;;4.9;1.9;;;;;;;23.71;34.88477;947.5386;;;;
2019/04/24 10:14:28;;;;;;;4.9;2;;;;;;;24.35;31.60059;947.449;;;;
2019/04/24 10:16:50;;;;;;;5.5;1.7;;;;;;;24.37;32.44727;947.3585;;;;
2019/04/24 10:19:17;;;;;;;4.3;1.5;;;;;;;24.66;31.34863;947.4275;;;;
2019/04/24 10:24:09;;;;;;;4.4;1.3;;;;;;;24.97;30.35645;947.3972;;;;
2019/04/24 10:26:37;;;;;;;3.9;1.2;;;;;;;24.76;28.9248;947.3215;;;;
2019/04/24 10:29:16;;;;;;;5.1;1.4;;;;;;;24.81;29.38086;947.2214;;;;
2019/04/24 10:33:54;;;;;;;7.4;1.3;;;;;;;25.48;27.15625;947.3248;;;;
2019/04/24 10:38:53;;;;;;;2.6;1.1;;;;;;;25.54;29.17871;947.1769;;;;
2019/04/24 10:43:39;;;;;;;5.4;1.1;;;;;;;26.21;25.37207;947.2133;;;;
2019/04/24 10:46:04;;;;;;;5.6;1.2;;;;;;;26.47;23.16113;947.2031;;;;
2019/04/24 10:50:51;;;;;;;3.3;1;;;;;;;25.97;25.41797;947.389;;;;
2019/04/24 10:53:21;;;;;;;2.5;1.2;;;;;;;26.19;26.13574;947.384;;;;
2019/04/24 10:55:45;;;;;;;2.8;0.8;;;;;;;26.73;22.20508;947.2807;;;;
2019/04/24 10:58:12;;;;;;;3.2;0.8;;;;;;;26.99;23.35645;947.3434;;;;
2019/04/24 11:03:18;;;;;;;2.2;0.6;;;;;;;26.97;22.13281;947.3535;;;;
2019/04/24 11:05:44;;;;;;;4.6;0.8;;;;;;;26.85;21.68457;947.428;;;;
2019/04/24 11:08:08;;;;;;;4.4;0.8;;;;;;;26.69;20.87402;947.4192;;;;
2019/04/24 11:13:09;;;;;;;4.9;0.9;;;;;;;26.58;21.92285;947.5317;;;;
2019/04/24 11:20:17;;;;;;;5.2;1.6;;;;;;;26.51;22.01465;947.4058;;;;
2019/04/24 11:22:39;;;;;;;3.5;1.3;;;;;;;27.28;22.26855;947.3494;;;;
2019/04/24 11:25:09;;;;;;;4.2;1.3;;;;;;;27.9;20.93066;947.3655;;;;
2019/04/24 11:27:30;;;;;;;2.1;0.6;;;;;;;27.97;20.37012;947.3331;;;;
2019/04/24 11:29:58;;;;;;;2.1;0.6;;;;;;;27.47;20.80273;947.3739;;;;
2019/04/24 11:32:41;;;;;;;1.4;0.6;;;;;;;27.03;21.84863;947.2797;;;;
2019/04/24 11:37:32;;;;;;;4.4;0.8;;;;;;;28.27;20.85156;947.3082;;;;
2019/04/24 11:40:00;;;;;;;2.9;0.7;;;;;;;28.44;20.03027;947.3557;;;;
2019/04/24 11:42:21;;;;;;;4.7;1.1;;;;;;;28.73;20.78809;947.3237;;;;
2019/04/24 11:47:17;;;;;;;4.2;0.9;;;;;;;28.63;19.37793;947.2988;;;;
2019/04/24 11:54:33;;;;;;;1.6;0.8;;;;;;;28.09;19.12695;947.217;;;;
2019/04/24 11:57:00;;;;;;;3.7;1.7;;;;;;;27.47;21.0791;947.1806;;;;
2019/04/24 11:59:25;;;;;;;3.6;0.8;;;;;;;28.3;22.87109;947.2288;;;;
2019/04/24 12:01:50;;;;;;;3.5;1;;;;;;;29.1;20.3125;947.1867;;;;
2019/04/24 12:04:16;;;;;;;4.1;0.9;;;;;;;28.69;20.66699;947.1117;;;;
2019/04/24 12:06:39;;;;;;;3.4;0.8;;;;;;;29.93;20.03711;947.2389;;;;
2019/04/24 12:09:05;;;;;;;3.8;0.7;;;;;;;29.62;18.90234;947.1209;;;;
2019/04/24 12:11:30;;;;;;;4.1;0.8;;;;;;;28.94;19.55957;947.153;;;;
2019/04/24 12:16:56;;;;;;;10.2;1;;;;;;;29.28;18.58691;947.2;;;;
2019/04/24 12:19:27;;;;;;;3.5;1;;;;;;;29.73;17.89551;947.195;;;;
2019/04/24 12:21:47;;;;;;;1.5;0.8;;;;;;;29.76;17.89648;947.1981;;;;
2019/04/24 12:24:10;;;;;;;2.3;0.7;;;;;;;30.03;18.95605;947.0338;;;;
2019/04/24 12:26:34;;;;;;;2.7;0.8;;;;;;;29.26;18.21289;947.103;;;;
2019/04/24 12:29:03;;;;;;;4.7;0.6;;;;;;;28.96;19.99316;947.0396;;;;
2019/04/24 12:31:34;;;;;;;5.6;0.9;;;;;;;29.39;18.74902;946.9958;;;;
2019/04/24 12:33:50;;;;;;;3;0.7;;;;;;;28.95;19.98145;947.0948;;;;
2019/04/24 12:36:24;;;;;;;8.3;0.9;;;;;;;29.14;18.60547;946.9775;;;;
2019/04/24 12:38:51;;;;;;;3.9;0.8;;;;;;;27.68;22.82813;947.1403;;;;
2019/04/24 12:41:17;;;;;;;3.9;1;;;;;;;27.74;19.92773;947.014;;;;
2019/04/24 12:43:51;;;;;;;2.4;1;;;;;;;28.47;19.2627;947.0245;;;;
2019/04/24 12:46:07;;;;;;;2.5;0.8;;;;;;;28.32;21.16699;946.974;;;;
2019/04/24 12:48:31;;;;;;;2.4;0.8;;;;;;;28.96;20.84766;946.921;;;;
2019/04/24 12:50:57;;;;;;;2.1;1;;;;;;;29.3;19.64746;946.8656;;;;
2019/04/24 12:53:27;;;;;;;2.9;1.1;;;;;;;28.74;19.28613;946.8918;;;;
2019/04/24 12:58:22;;;;;;;3.3;0.9;;;;;;;28.37;20.42383;946.7902;;;;
2019/04/24 13:01:01;;;;;;;1.9;0.6;;;;;;;27.52;21.30859;946.8957;;;;
2019/04/24 13:03:30;;;;;;;4.8;0.8;;;;;;;28.07;20.99805;946.8797;;;;
2019/04/24 13:05:45;;;;;;;4.5;0.9;;;;;;;27.75;19.04004;946.8641;;;;
2019/04/24 13:08:09;;;;;;;4;0.7;;;;;;;27.37;18.73633;946.8678;;;;
2019/04/24 13:10:36;;;;;;;4.8;0.9;;;;;;;26.93;19.62793;946.892;;;;
2019/04/24 13:13:09;;;;;;;5;1;;;;;;;26.86;19.97266;946.8565;;;;
2019/04/24 13:15:32;;;;;;;3.4;0.9;;;;;;;26.87;19.18262;946.838;;;;
2019/04/24 13:17:53;;;;;;;3.2;0.8;;;;;;;27.2;19.87988;946.8627;;;;
2019/04/24 13:20:18;;;;;;;4.1;1;;;;;;;27.64;19.34766;946.7967;;;;
2019/04/24 13:22:46;;;;;;;4.7;0.8;;;;;;;28.39;18.07031;946.829;;;;
2019/04/24 13:25:19;;;;;;;7.1;1;;;;;;;28.12;19.7998;946.9045;;;;
2019/04/24 13:27:42;;;;;;;3.2;0.8;;;;;;;27.34;20.16113;946.883;;;;
2019/04/24 13:30:18;;;;;;;2.6;0.9;;;;;;;26.97;19.89355;946.8452;;;;
2019/04/24 13:32:32;;;;;;;3.1;0.8;;;;;;;27.4;18.58105;946.7789;;;;
2019/04/24 13:34:55;;;;;;;5.9;1;;;;;;;27.11;19.76758;946.74;;;;
2019/04/24 13:37:21;;;;;;;5.2;0.9;;;;;;;27.09;19.98242;946.8308;;;;
2019/04/24 13:39:46;;;;;;;4.4;1;;;;;;;27.7;19.96191;946.7637;;;;
2019/04/24 13:42:16;;;;;;;4.1;1.1;;;;;;;28.01;20.74316;946.7299;;;;
2019/04/24 13:45:00;;;;;;;6.3;1.1;;;;;;;27.31;20.67578;946.7389;;;;
2019/04/24 13:47:30;;;;;;;4.5;1;;;;;;;27.83;19.46289;946.7686;;;;
2019/04/24 13:50:10;;;;;;;4;0.9;;;;;;;27.27;19.27148;946.7559;;;;
2019/04/24 13:52:33;;;;;;;4.5;1.2;;;;;;;27.27;19.04395;946.7386;;;;
2019/04/24 13:54:58;;;;;;;5.5;1;;;;;;;27.57;18.91211;946.671;;;;
2019/04/24 13:57:23;;;;;;;4.4;0.8;;;;;;;27.63;19.21484;946.7024;;;;
2019/04/24 13:59:49;;;;;;;2.8;0.8;;;;;;;27.47;18.39258;946.7826;;;;
2019/04/24 14:02:14;;;;;;;3.1;0.9;;;;;;;27.51;19.31738;946.7658;;;;
2019/04/24 14:04:47;;;;;;;4.4;0.8;;;;;;;27.76;18.86035;946.7784;;;;
2019/04/24 14:07:12;;;;;;;4.7;0.9;;;;;;;26.66;20.87305;946.6456;;;;
2019/04/24 14:09:38;;;;;;;4.6;0.9;;;;;;;26.35;20.28516;946.7356;;;;
2019/04/24 14:12:04;;;;;;;5.4;0.9;;;;;;;26.25;19.13184;946.6509;;;;
2019/04/24 14:14:29;;;;;;;4.6;1;;;;;;;26.05;19.12305;946.6891;;;;
2019/04/24 14:17:06;;;;;;;2.8;0.9;;;;;;;25.97;20.53027;946.7219;;;;
2019/04/24 14:19:37;;;;;;;1.6;0.7;;;;;;;25.84;20.52344;946.7505;;;;
2019/04/24 14:24:25;;;;;;;3.8;1;;;;;;;25.72;20.25586;946.7458;;;;
2019/04/24 14:26:53;;;;;;;2.2;0.9;;;;;;;25.88;20.43066;946.7957;;;;
2019/04/24 14:29:20;;;;;;;6.2;0.8;;;;;;;26.06;21.66992;946.7662;;;;
2019/04/24 14:31:45;;;;;;;8.9;1;;;;;;;26.07;20.95313;946.7501;;;;
2019/04/24 14:34:16;;;;;;;2.9;0.9;;;;;;;25.91;21.55566;946.7637;;;;
2019/04/24 14:36:41;;;;;;;1.8;0.8;;;;;;;25.81;22.50586;946.738;;;;
2019/04/24 14:39:06;;;;;;;3.7;0.9;;;;;;;25.88;23.62109;946.7548;;;;
2019/04/24 14:41:52;;;;;;;4.2;0.9;;;;;;;26;22.39648;946.8066;;;;
2019/04/24 14:44:22;;;;;;;2.7;0.8;;;;;;;25.95;22.22656;946.7944;;;;
2019/04/24 14:49:09;;;;;;;3.9;1;;;;;;;25.93;23.2998;946.7908;;;;
2019/04/24 14:51:40;;;;;;;1.8;0.8;;;;;;;25.68;24.03906;946.8069;;;;
2019/04/24 14:54:05;;;;;;;3.7;0.8;;;;;;;25.29;23.51758;946.7659;;;;
2019/04/24 14:56:30;;;;;;;3.4;0.7;;;;;;;25.68;23.77734;946.7228;;;;
2019/04/24 14:58:55;;;;;;;3.9;0.9;;;;;;;25.46;24.45801;946.7291;;;;
2019/04/24 15:01:28;;;;;;;3.9;0.8;;;;;;;25.17;24.21582;946.7533;;;;
2019/04/24 15:03:45;;;;;;;5.3;1;;;;;;;24.78;25.63672;946.7505;;;;
2019/04/24 15:06:11;;;;;;;2.2;0.8;;;;;;;24.68;27.09668;946.6958;;;;
2019/04/24 15:08:36;;;;;;;3.1;1;;;;;;;24.79;27.33008;946.7703;;;;
2019/04/24 15:11:01;;;;;;;2.6;0.7;;;;;;;24.41;26.9248;946.7527;;;;
2019/04/24 15:13:39;;;;;;;4.8;0.9;;;;;;;24.31;28.15723;946.8206;;;;
2019/04/24 15:18:32;;;;;;;6.5;1.1;;;;;;;24.23;29.11621;946.8175;;;;
2019/04/24 15:20:58;;;;;;;2.3;0.8;;;;;;;24.28;28.11914;946.8208;;;;
2019/04/24 15:23:33;;;;;;;4;0.9;;;;;;;23.91;26.89551;946.8522;;;;
2019/04/24 15:26:02;;;;;;;4.1;1.1;;;;;;;23.98;28.00488;946.884;;;;
2019/04/24 15:28:29;;;;;;;4.7;1;;;;;;;23.93;27.02734;946.8493;;;;
2019/04/24 15:31:06;;;;;;;3.5;0.9;;;;;;;24.02;27.77051;946.838;;;;
2019/04/24 15:33:48;;;;;;;3.2;1.2;;;;;;;23.66;28.13965;946.8022;;;;
2019/04/24 15:36:31;;;;;;;4.5;1.3;;;;;;;23.3;28.75879;946.7919;;;;
2019/04/24 15:39:03;;;;;;;6.7;1.1;;;;;;;23.29;29.49414;946.7947;;;;
2019/04/24 15:41:30;;;;;;;3.7;0.9;;;;;;;23.32;28.41504;946.8635;;;;
2019/04/24 15:43:55;;;;;;;2;0.8;;;;;;;23.23;28.49219;946.8577;;;;
2019/04/24 15:46:40;;;;;;;9.6;1.2;;;;;;;23.01;29.12012;946.8343;;;;
2019/04/24 15:49:05;;;;;;;3.6;1.4;;;;;;;23.1;27.29688;946.9369;;;;
2019/04/24 15:51:31;;;;;;;2;1;;;;;;;23.19;26.94629;946.8853;;;;
2019/04/24 15:53:59;;;;;;;5.3;1;;;;;;;22.97;27.62207;946.8033;;;;
2019/04/24 15:56:34;;;;;;;4.4;1.2;;;;;;;23.06;27.15234;946.8614;;;;
2019/04/24 15:59:10;;;;;;;5.6;1.2;;;;;;;22.85;27.30469;946.8248;;;;
2019/04/24 16:01:39;;;;;;;3.8;1;;;;;;;22.89;27.73535;946.7826;;;;
2019/04/24 16:04:04;;;;;;;4.1;1.2;;;;;;;22.92;28.36621;946.8688;;;;
2019/04/24 16:08:56;;;;;;;3.3;1.3;;;;;;;22.71;27.34473;947.0003;;;;
2019/04/24 16:11:31;;;;;;;4.8;1.2;;;;;;;22.57;28.26074;946.9304;;;;